sensor_id;sensor_type;location;lat;lon;timestamp;P1;durP1;ratioP1;P2;durP2;ratioP2
14907;SDS011;7545;52.092;7.006;2024-01-10T00:02:19;6.57;;;1.80;;
14907;SDS011;7545;52.092;7.006;2024-01-10T00:04:45;2.43;;;1.90;;
14907;SDS011;7545;52.092;7.006;2024-01-10T00:07:10;2.83;;;1.73;;
14907;SDS011;7545;52.092;7.006;2024-01-10T00:09:36;2.50;;;1.30;;
14907;SDS011;7545;52.092;7.006;2024-01-10T00:12:01;6.17;;;2.00;;
14907;SDS011;7545;52.092;7.006;2024-01-10T00:14:27;3.67;;;1.43;;
14907;SDS011;7545;52.092;7.006;2024-01-10T00:16:52;3.17;;;2.27;;
14907;SDS011;7545;52.092;7.006;2024-01-10T00:19:18;4.93;;;1.50;;
14907;SDS011;7545;52.092;7.006;2024-01-10T00:21:43;1.77;;;1.30;;
14907;SDS011;7545;52.092;7.006;2024-01-10T00:24:09;1.77;;;1.10;;
14907;SDS011;7545;52.092;7.006;2024-01-10T00:26:35;3.87;;;2.13;;
14907;SDS011;7545;52.092;7.006;2024-01-10T00:29:00;4.20;;;1.97;;
14907;SDS011;7545;52.092;7.006;2024-01-10T00:31:26;2.70;;;1.37;;
14907;SDS011;7545;52.092;7.006;2024-01-10T00:33:51;2.43;;;1.60;;
14907;SDS011;7545;52.092;7.006;2024-01-10T00:36:17;4.63;;;1.70;;
14907;SDS011;7545;52.092;7.006;2024-01-10T00:38:42;5.10;;;2.00;;
14907;SDS011;7545;52.092;7.006;2024-01-10T00:41:08;6.50;;;2.37;;
14907;SDS011;7545;52.092;7.006;2024-01-10T00:43:33;4.17;;;2.07;;
14907;SDS011;7545;52.092;7.006;2024-01-10T00:45:59;6.47;;;2.63;;
14907;SDS011;7545;52.092;7.006;2024-01-10T00:48:25;3.63;;;2.53;;
14907;SDS011;7545;52.092;7.006;2024-01-10T00:50:50;2.50;;;2.20;;
14907;SDS011;7545;52.092;7.006;2024-01-10T00:53:16;4.17;;;2.50;;
14907;SDS011;7545;52.092;7.006;2024-01-10T00:55:42;3.17;;;2.00;;
14907;SDS011;7545;52.092;7.006;2024-01-10T00:58:07;4.87;;;2.10;;
14907;SDS011;7545;52.092;7.006;2024-01-10T01:00:33;4.30;;;2.07;;
14907;SDS011;7545;52.092;7.006;2024-01-10T01:02:58;5.47;;;1.80;;
14907;SDS011;7545;52.092;7.006;2024-01-10T01:05:24;4.23;;;1.93;;
14907;SDS011;7545;52.092;7.006;2024-01-10T01:07:49;3.10;;;1.77;;
14907;SDS011;7545;52.092;7.006;2024-01-10T01:10:15;2.60;;;1.90;;
14907;SDS011;7545;52.092;7.006;2024-01-10T01:12:41;3.17;;;2.30;;
14907;SDS011;7545;52.092;7.006;2024-01-10T01:15:06;3.93;;;1.43;;
14907;SDS011;7545;52.092;7.006;2024-01-10T01:17:32;4.40;;;2.00;;
14907;SDS011;7545;52.092;7.006;2024-01-10T01:19:59;2.83;;;2.13;;
14907;SDS011;7545;52.092;7.006;2024-01-10T01:22:25;3.40;;;1.60;;
14907;SDS011;7545;52.092;7.006;2024-01-10T01:24:50;3.70;;;1.90;;
14907;SDS011;7545;52.092;7.006;2024-01-10T01:27:16;2.67;;;1.30;;
14907;SDS011;7545;52.092;7.006;2024-01-10T01:29:41;2.77;;;1.80;;
14907;SDS011;7545;52.092;7.006;2024-01-10T01:32:07;3.93;;;1.90;;
14907;SDS011;7545;52.092;7.006;2024-01-10T01:34:32;5.00;;;2.13;;
14907;SDS011;7545;52.092;7.006;2024-01-10T01:36:58;3.03;;;1.57;;
14907;SDS011;7545;52.092;7.006;2024-01-10T01:39:24;3.13;;;1.73;;
14907;SDS011;7545;52.092;7.006;2024-01-10T01:41:49;2.40;;;1.57;;
14907;SDS011;7545;52.092;7.006;2024-01-10T01:44:15;3.03;;;1.77;;
14907;SDS011;7545;52.092;7.006;2024-01-10T01:46:40;4.77;;;2.10;;
14907;SDS011;7545;52.092;7.006;2024-01-10T01:49:06;3.40;;;1.67;;
14907;SDS011;7545;52.092;7.006;2024-01-10T01:51:32;4.10;;;2.30;;
14907;SDS011;7545;52.092;7.006;2024-01-10T01:54:00;2.10;;;1.80;;
14907;SDS011;7545;52.092;7.006;2024-01-10T01:56:25;5.63;;;2.03;;
14907;SDS011;7545;52.092;7.006;2024-01-10T01:58:54;3.30;;;2.33;;
14907;SDS011;7545;52.092;7.006;2024-01-10T02:01:20;3.30;;;2.03;;
14907;SDS011;7545;52.092;7.006;2024-01-10T02:03:46;2.10;;;1.33;;
14907;SDS011;7545;52.092;7.006;2024-01-10T02:06:12;3.17;;;1.47;;
14907;SDS011;7545;52.092;7.006;2024-01-10T02:08:38;3.63;;;2.23;;
14907;SDS011;7545;52.092;7.006;2024-01-10T02:11:04;3.57;;;2.03;;
14907;SDS011;7545;52.092;7.006;2024-01-10T02:13:30;3.13;;;2.00;;
14907;SDS011;7545;52.092;7.006;2024-01-10T02:15:57;2.97;;;1.80;;
14907;SDS011;7545;52.092;7.006;2024-01-10T02:18:24;4.47;;;2.40;;
14907;SDS011;7545;52.092;7.006;2024-01-10T02:20:52;3.03;;;1.57;;
14907;SDS011;7545;52.092;7.006;2024-01-10T02:23:18;2.13;;;1.93;;
14907;SDS011;7545;52.092;7.006;2024-01-10T02:25:43;2.53;;;1.57;;
14907;SDS011;7545;52.092;7.006;2024-01-10T02:28:09;5.10;;;1.77;;
14907;SDS011;7545;52.092;7.006;2024-01-10T02:30:35;3.20;;;2.03;;
14907;SDS011;7545;52.092;7.006;2024-01-10T02:33:01;3.00;;;1.93;;
14907;SDS011;7545;52.092;7.006;2024-01-10T02:35:27;3.07;;;1.87;;
14907;SDS011;7545;52.092;7.006;2024-01-10T02:37:53;3.63;;;1.53;;
14907;SDS011;7545;52.092;7.006;2024-01-10T02:40:19;3.67;;;2.10;;
14907;SDS011;7545;52.092;7.006;2024-01-10T02:42:45;4.13;;;2.30;;
14907;SDS011;7545;52.092;7.006;2024-01-10T02:45:11;3.27;;;1.07;;
14907;SDS011;7545;52.092;7.006;2024-01-10T02:47:36;2.00;;;1.50;;
14907;SDS011;7545;52.092;7.006;2024-01-10T02:50:03;3.60;;;2.10;;
14907;SDS011;7545;52.092;7.006;2024-01-10T02:52:29;3.20;;;2.10;;
14907;SDS011;7545;52.092;7.006;2024-01-10T02:54:55;4.97;;;2.30;;
14907;SDS011;7545;52.092;7.006;2024-01-10T02:57:21;2.40;;;1.67;;
14907;SDS011;7545;52.092;7.006;2024-01-10T02:59:46;3.67;;;2.00;;
14907;SDS011;7545;52.092;7.006;2024-01-10T03:02:12;5.10;;;2.07;;
14907;SDS011;7545;52.092;7.006;2024-01-10T03:04:37;2.70;;;1.90;;
14907;SDS011;7545;52.092;7.006;2024-01-10T03:07:03;8.80;;;2.23;;
14907;SDS011;7545;52.092;7.006;2024-01-10T03:09:29;4.40;;;2.47;;
14907;SDS011;7545;52.092;7.006;2024-01-10T03:11:54;3.17;;;1.87;;
14907;SDS011;7545;52.092;7.006;2024-01-10T03:14:20;6.53;;;2.17;;
14907;SDS011;7545;52.092;7.006;2024-01-10T03:16:45;6.60;;;2.90;;
14907;SDS011;7545;52.092;7.006;2024-01-10T03:19:11;4.70;;;2.30;;
14907;SDS011;7545;52.092;7.006;2024-01-10T03:21:36;2.40;;;1.70;;
14907;SDS011;7545;52.092;7.006;2024-01-10T03:24:02;4.80;;;2.40;;
14907;SDS011;7545;52.092;7.006;2024-01-10T03:26:28;3.93;;;2.37;;
14907;SDS011;7545;52.092;7.006;2024-01-10T03:28:55;2.00;;;1.43;;
14907;SDS011;7545;52.092;7.006;2024-01-10T03:31:22;3.03;;;1.70;;
14907;SDS011;7545;52.092;7.006;2024-01-10T03:33:47;2.80;;;1.73;;
14907;SDS011;7545;52.092;7.006;2024-01-10T03:36:15;3.03;;;1.53;;
14907;SDS011;7545;52.092;7.006;2024-01-10T03:38:42;4.77;;;1.77;;
14907;SDS011;7545;52.092;7.006;2024-01-10T03:41:12;3.47;;;2.43;;
14907;SDS011;7545;52.092;7.006;2024-01-10T03:43:39;2.63;;;1.90;;
14907;SDS011;7545;52.092;7.006;2024-01-10T03:46:04;4.20;;;1.73;;
14907;SDS011;7545;52.092;7.006;2024-01-10T03:48:30;3.67;;;2.17;;
14907;SDS011;7545;52.092;7.006;2024-01-10T03:50:56;3.63;;;2.50;;
14907;SDS011;7545;52.092;7.006;2024-01-10T03:53:21;5.90;;;2.03;;
14907;SDS011;7545;52.092;7.006;2024-01-10T03:55:47;3.50;;;2.20;;
14907;SDS011;7545;52.092;7.006;2024-01-10T03:58:13;4.30;;;1.90;;
14907;SDS011;7545;52.092;7.006;2024-01-10T04:00:38;3.67;;;2.20;;
14907;SDS011;7545;52.092;7.006;2024-01-10T04:03:04;3.30;;;2.27;;
14907;SDS011;7545;52.092;7.006;2024-01-10T04:05:29;3.07;;;2.30;;
14907;SDS011;7545;52.092;7.006;2024-01-10T04:07:55;3.80;;;2.30;;
14907;SDS011;7545;52.092;7.006;2024-01-10T04:10:22;2.13;;;1.40;;
14907;SDS011;7545;52.092;7.006;2024-01-10T04:12:48;2.33;;;1.70;;
14907;SDS011;7545;52.092;7.006;2024-01-10T04:15:13;2.67;;;2.30;;
14907;SDS011;7545;52.092;7.006;2024-01-10T04:17:39;6.50;;;2.97;;
14907;SDS011;7545;52.092;7.006;2024-01-10T04:20:05;4.33;;;2.87;;
14907;SDS011;7545;52.092;7.006;2024-01-10T04:22:31;4.90;;;1.93;;
14907;SDS011;7545;52.092;7.006;2024-01-10T04:24:57;5.43;;;2.20;;
14907;SDS011;7545;52.092;7.006;2024-01-10T04:27:23;5.50;;;2.57;;
14907;SDS011;7545;52.092;7.006;2024-01-10T04:29:49;3.67;;;2.10;;
14907;SDS011;7545;52.092;7.006;2024-01-10T04:32:14;3.17;;;2.53;;
14907;SDS011;7545;52.092;7.006;2024-01-10T04:34:40;4.27;;;1.97;;
14907;SDS011;7545;52.092;7.006;2024-01-10T04:37:06;5.03;;;2.43;;
14907;SDS011;7545;52.092;7.006;2024-01-10T04:39:34;2.70;;;2.03;;
14907;SDS011;7545;52.092;7.006;2024-01-10T04:42:00;5.83;;;2.37;;
14907;SDS011;7545;52.092;7.006;2024-01-10T04:44:27;4.30;;;2.20;;
14907;SDS011;7545;52.092;7.006;2024-01-10T04:46:52;8.03;;;3.03;;
14907;SDS011;7545;52.092;7.006;2024-01-10T04:49:18;3.67;;;2.10;;
14907;SDS011;7545;52.092;7.006;2024-01-10T04:51:44;3.30;;;2.30;;
14907;SDS011;7545;52.092;7.006;2024-01-10T04:54:10;4.57;;;2.87;;
14907;SDS011;7545;52.092;7.006;2024-01-10T04:56:36;5.80;;;2.67;;
14907;SDS011;7545;52.092;7.006;2024-01-10T04:59:02;6.23;;;2.47;;
14907;SDS011;7545;52.092;7.006;2024-01-10T05:01:28;3.97;;;2.60;;
14907;SDS011;7545;52.092;7.006;2024-01-10T05:03:54;5.27;;;2.97;;
14907;SDS011;7545;52.092;7.006;2024-01-10T05:06:19;3.97;;;2.70;;
14907;SDS011;7545;52.092;7.006;2024-01-10T05:08:45;6.13;;;2.63;;
14907;SDS011;7545;52.092;7.006;2024-01-10T05:11:11;5.90;;;2.53;;
14907;SDS011;7545;52.092;7.006;2024-01-10T05:13:37;5.80;;;2.50;;
14907;SDS011;7545;52.092;7.006;2024-01-10T05:16:04;5.40;;;2.67;;
14907;SDS011;7545;52.092;7.006;2024-01-10T05:18:30;4.03;;;2.40;;
14907;SDS011;7545;52.092;7.006;2024-01-10T05:20:55;3.87;;;2.57;;
14907;SDS011;7545;52.092;7.006;2024-01-10T05:23:22;6.50;;;2.87;;
14907;SDS011;7545;52.092;7.006;2024-01-10T05:25:48;9.27;;;2.77;;
14907;SDS011;7545;52.092;7.006;2024-01-10T05:28:14;4.37;;;2.40;;
14907;SDS011;7545;52.092;7.006;2024-01-10T05:30:40;7.57;;;3.57;;
14907;SDS011;7545;52.092;7.006;2024-01-10T05:33:06;7.40;;;2.97;;
14907;SDS011;7545;52.092;7.006;2024-01-10T05:35:31;5.97;;;2.77;;
14907;SDS011;7545;52.092;7.006;2024-01-10T05:37:57;7.17;;;3.60;;
14907;SDS011;7545;52.092;7.006;2024-01-10T05:40:23;5.87;;;2.87;;
14907;SDS011;7545;52.092;7.006;2024-01-10T05:42:49;4.60;;;2.90;;
14907;SDS011;7545;52.092;7.006;2024-01-10T05:45:14;6.73;;;3.70;;
14907;SDS011;7545;52.092;7.006;2024-01-10T05:47:43;5.53;;;2.90;;
14907;SDS011;7545;52.092;7.006;2024-01-10T05:50:08;7.00;;;2.87;;
14907;SDS011;7545;52.092;7.006;2024-01-10T05:52:34;7.67;;;3.57;;
14907;SDS011;7545;52.092;7.006;2024-01-10T05:54:59;9.23;;;4.10;;
14907;SDS011;7545;52.092;7.006;2024-01-10T05:57:28;6.47;;;3.23;;
14907;SDS011;7545;52.092;7.006;2024-01-10T05:59:55;7.23;;;3.10;;
14907;SDS011;7545;52.092;7.006;2024-01-10T06:02:22;6.23;;;3.83;;
14907;SDS011;7545;52.092;7.006;2024-01-10T06:04:49;6.53;;;3.40;;
14907;SDS011;7545;52.092;7.006;2024-01-10T06:07:15;6.40;;;3.70;;
14907;SDS011;7545;52.092;7.006;2024-01-10T06:09:40;6.30;;;4.17;;
14907;SDS011;7545;52.092;7.006;2024-01-10T06:12:06;8.30;;;3.83;;
14907;SDS011;7545;52.092;7.006;2024-01-10T06:14:32;6.67;;;3.37;;
14907;SDS011;7545;52.092;7.006;2024-01-10T06:16:57;7.87;;;3.07;;
14907;SDS011;7545;52.092;7.006;2024-01-10T06:19:24;4.20;;;3.57;;
14907;SDS011;7545;52.092;7.006;2024-01-10T06:21:50;6.80;;;3.60;;
14907;SDS011;7545;52.092;7.006;2024-01-10T06:24:17;4.47;;;2.90;;
14907;SDS011;7545;52.092;7.006;2024-01-10T06:26:42;7.67;;;3.80;;
14907;SDS011;7545;52.092;7.006;2024-01-10T06:29:08;2.50;;;2.30;;
14907;SDS011;7545;52.092;7.006;2024-01-10T06:31:33;6.63;;;2.97;;
14907;SDS011;7545;52.092;7.006;2024-01-10T06:33:59;5.80;;;3.33;;
14907;SDS011;7545;52.092;7.006;2024-01-10T06:36:25;6.53;;;3.73;;
14907;SDS011;7545;52.092;7.006;2024-01-10T06:38:50;5.90;;;2.60;;
14907;SDS011;7545;52.092;7.006;2024-01-10T06:41:16;4.77;;;3.17;;
14907;SDS011;7545;52.092;7.006;2024-01-10T06:43:41;11.57;;;4.10;;
14907;SDS011;7545;52.092;7.006;2024-01-10T06:46:07;9.67;;;3.87;;
14907;SDS011;7545;52.092;7.006;2024-01-10T06:48:32;6.00;;;3.60;;
14907;SDS011;7545;52.092;7.006;2024-01-10T06:50:58;6.47;;;3.47;;
14907;SDS011;7545;52.092;7.006;2024-01-10T06:53:24;6.40;;;3.63;;
14907;SDS011;7545;52.092;7.006;2024-01-10T06:55:50;6.80;;;4.27;;
14907;SDS011;7545;52.092;7.006;2024-01-10T06:58:15;6.33;;;4.13;;
14907;SDS011;7545;52.092;7.006;2024-01-10T07:00:41;8.03;;;4.50;;
14907;SDS011;7545;52.092;7.006;2024-01-10T07:03:07;8.13;;;4.13;;
14907;SDS011;7545;52.092;7.006;2024-01-10T07:05:32;6.53;;;3.23;;
14907;SDS011;7545;52.092;7.006;2024-01-10T07:07:58;8.00;;;4.00;;
14907;SDS011;7545;52.092;7.006;2024-01-10T07:10:24;7.00;;;4.43;;
14907;SDS011;7545;52.092;7.006;2024-01-10T07:12:53;9.00;;;3.90;;
14907;SDS011;7545;52.092;7.006;2024-01-10T07:15:19;10.37;;;5.27;;
14907;SDS011;7545;52.092;7.006;2024-01-10T07:17:44;6.47;;;3.17;;
14907;SDS011;7545;52.092;7.006;2024-01-10T07:20:10;7.83;;;4.03;;
14907;SDS011;7545;52.092;7.006;2024-01-10T07:22:37;15.97;;;4.03;;
14907;SDS011;7545;52.092;7.006;2024-01-10T07:25:06;7.40;;;5.07;;
14907;SDS011;7545;52.092;7.006;2024-01-10T07:27:35;8.07;;;5.33;;
14907;SDS011;7545;52.092;7.006;2024-01-10T07:30:03;6.60;;;3.53;;
14907;SDS011;7545;52.092;7.006;2024-01-10T07:32:35;6.77;;;3.83;;
14907;SDS011;7545;52.092;7.006;2024-01-10T07:35:01;8.10;;;4.13;;
14907;SDS011;7545;52.092;7.006;2024-01-10T07:37:26;10.37;;;4.73;;
14907;SDS011;7545;52.092;7.006;2024-01-10T07:39:52;7.13;;;4.40;;
14907;SDS011;7545;52.092;7.006;2024-01-10T07:42:19;8.40;;;4.97;;
14907;SDS011;7545;52.092;7.006;2024-01-10T07:44:44;5.20;;;3.60;;
14907;SDS011;7545;52.092;7.006;2024-01-10T07:47:10;9.80;;;3.80;;
14907;SDS011;7545;52.092;7.006;2024-01-10T07:49:35;9.20;;;4.63;;
14907;SDS011;7545;52.092;7.006;2024-01-10T07:52:02;7.13;;;4.30;;
14907;SDS011;7545;52.092;7.006;2024-01-10T07:54:29;5.67;;;3.60;;
14907;SDS011;7545;52.092;7.006;2024-01-10T07:56:57;9.27;;;3.60;;
14907;SDS011;7545;52.092;7.006;2024-01-10T07:59:23;10.60;;;4.23;;
14907;SDS011;7545;52.092;7.006;2024-01-10T08:01:56;6.23;;;3.67;;
14907;SDS011;7545;52.092;7.006;2024-01-10T08:04:25;6.00;;;3.80;;
14907;SDS011;7545;52.092;7.006;2024-01-10T08:06:51;7.03;;;3.77;;
14907;SDS011;7545;52.092;7.006;2024-01-10T08:09:18;6.93;;;4.33;;
14907;SDS011;7545;52.092;7.006;2024-01-10T08:11:46;7.30;;;4.10;;
14907;SDS011;7545;52.092;7.006;2024-01-10T08:14:13;10.77;;;4.50;;
14907;SDS011;7545;52.092;7.006;2024-01-10T08:16:39;5.63;;;4.03;;
14907;SDS011;7545;52.092;7.006;2024-01-10T08:19:04;6.50;;;4.37;;
14907;SDS011;7545;52.092;7.006;2024-01-10T08:21:30;12.37;;;5.63;;
14907;SDS011;7545;52.092;7.006;2024-01-10T08:23:55;11.47;;;4.87;;
14907;SDS011;7545;52.092;7.006;2024-01-10T08:26:21;12.53;;;4.03;;
14907;SDS011;7545;52.092;7.006;2024-01-10T08:28:47;8.60;;;5.60;;
14907;SDS011;7545;52.092;7.006;2024-01-10T08:31:16;7.60;;;4.10;;
14907;SDS011;7545;52.092;7.006;2024-01-10T08:33:41;7.10;;;4.63;;
14907;SDS011;7545;52.092;7.006;2024-01-10T08:36:07;9.27;;;5.10;;
14907;SDS011;7545;52.092;7.006;2024-01-10T08:38:34;6.57;;;4.20;;
14907;SDS011;7545;52.092;7.006;2024-01-10T08:41:01;7.47;;;4.33;;
14907;SDS011;7545;52.092;7.006;2024-01-10T08:43:27;7.13;;;4.40;;
14907;SDS011;7545;52.092;7.006;2024-01-10T08:45:52;13.53;;;6.23;;
14907;SDS011;7545;52.092;7.006;2024-01-10T08:48:18;9.50;;;4.40;;
14907;SDS011;7545;52.092;7.006;2024-01-10T08:50:43;8.33;;;4.80;;
14907;SDS011;7545;52.092;7.006;2024-01-10T08:53:09;9.83;;;4.83;;
14907;SDS011;7545;52.092;7.006;2024-01-10T08:55:35;10.63;;;5.87;;
14907;SDS011;7545;52.092;7.006;2024-01-10T08:58:02;13.50;;;5.50;;
14907;SDS011;7545;52.092;7.006;2024-01-10T09:00:28;5.07;;;3.80;;
14907;SDS011;7545;52.092;7.006;2024-01-10T09:02:54;7.20;;;5.03;;
14907;SDS011;7545;52.092;7.006;2024-01-10T09:05:20;12.80;;;5.50;;
14907;SDS011;7545;52.092;7.006;2024-01-10T09:07:46;14.37;;;7.27;;
14907;SDS011;7545;52.092;7.006;2024-01-10T09:10:12;12.20;;;7.83;;
14907;SDS011;7545;52.092;7.006;2024-01-10T09:12:38;12.87;;;7.43;;
14907;SDS011;7545;52.092;7.006;2024-01-10T09:15:04;9.33;;;5.73;;
14907;SDS011;7545;52.092;7.006;2024-01-10T09:17:33;6.67;;;5.30;;
14907;SDS011;7545;52.092;7.006;2024-01-10T09:19:58;6.37;;;4.20;;
14907;SDS011;7545;52.092;7.006;2024-01-10T09:22:24;8.10;;;4.77;;
14907;SDS011;7545;52.092;7.006;2024-01-10T09:24:50;8.87;;;5.30;;
14907;SDS011;7545;52.092;7.006;2024-01-10T09:27:15;9.10;;;4.83;;
14907;SDS011;7545;52.092;7.006;2024-01-10T09:29:41;9.30;;;5.53;;
14907;SDS011;7545;52.092;7.006;2024-01-10T09:32:07;9.60;;;5.17;;
14907;SDS011;7545;52.092;7.006;2024-01-10T09:34:33;10.77;;;5.33;;
14907;SDS011;7545;52.092;7.006;2024-01-10T09:36:58;11.23;;;5.70;;
14907;SDS011;7545;52.092;7.006;2024-01-10T09:39:24;14.63;;;4.53;;
14907;SDS011;7545;52.092;7.006;2024-01-10T09:41:49;10.63;;;4.40;;
14907;SDS011;7545;52.092;7.006;2024-01-10T09:44:16;13.70;;;6.43;;
14907;SDS011;7545;52.092;7.006;2024-01-10T09:46:49;9.73;;;5.83;;
14907;SDS011;7545;52.092;7.006;2024-01-10T09:49:17;11.87;;;6.33;;
14907;SDS011;7545;52.092;7.006;2024-01-10T09:51:46;10.83;;;4.97;;
14907;SDS011;7545;52.092;7.006;2024-01-10T09:54:13;8.80;;;5.47;;
14907;SDS011;7545;52.092;7.006;2024-01-10T09:56:44;12.50;;;7.47;;
14907;SDS011;7545;52.092;7.006;2024-01-10T09:59:10;12.67;;;5.93;;
14907;SDS011;7545;52.092;7.006;2024-01-10T10:01:38;12.10;;;5.83;;
14907;SDS011;7545;52.092;7.006;2024-01-10T10:04:04;15.90;;;7.83;;
14907;SDS011;7545;52.092;7.006;2024-01-10T10:06:32;13.00;;;7.20;;
14907;SDS011;7545;52.092;7.006;2024-01-10T10:08:59;11.00;;;5.33;;
14907;SDS011;7545;52.092;7.006;2024-01-10T10:11:24;23.27;;;8.40;;
14907;SDS011;7545;52.092;7.006;2024-01-10T10:13:50;29.10;;;11.40;;
14907;SDS011;7545;52.092;7.006;2024-01-10T10:16:22;19.83;;;7.97;;
14907;SDS011;7545;52.092;7.006;2024-01-10T10:18:50;13.10;;;6.60;;
14907;SDS011;7545;52.092;7.006;2024-01-10T10:21:18;11.43;;;5.40;;
14907;SDS011;7545;52.092;7.006;2024-01-10T10:23:57;8.50;;;4.30;;
14907;SDS011;7545;52.092;7.006;2024-01-10T10:26:26;10.33;;;5.67;;
14907;SDS011;7545;52.092;7.006;2024-01-10T10:28:52;17.27;;;7.20;;
14907;SDS011;7545;52.092;7.006;2024-01-10T10:31:19;9.93;;;6.63;;
14907;SDS011;7545;52.092;7.006;2024-01-10T10:33:45;10.07;;;6.70;;
14907;SDS011;7545;52.092;7.006;2024-01-10T10:36:13;9.77;;;5.73;;
14907;SDS011;7545;52.092;7.006;2024-01-10T10:38:39;11.93;;;6.57;;
14907;SDS011;7545;52.092;7.006;2024-01-10T10:41:05;13.60;;;6.50;;
14907;SDS011;7545;52.092;7.006;2024-01-10T10:43:38;9.60;;;6.10;;
14907;SDS011;7545;52.092;7.006;2024-01-10T10:46:05;12.30;;;6.13;;
14907;SDS011;7545;52.092;7.006;2024-01-10T10:48:33;9.53;;;6.77;;
14907;SDS011;7545;52.092;7.006;2024-01-10T10:51:06;11.47;;;7.23;;
14907;SDS011;7545;52.092;7.006;2024-01-10T10:53:37;13.27;;;7.77;;
14907;SDS011;7545;52.092;7.006;2024-01-10T10:56:06;14.27;;;6.47;;
14907;SDS011;7545;52.092;7.006;2024-01-10T10:58:33;11.10;;;6.67;;
14907;SDS011;7545;52.092;7.006;2024-01-10T11:01:02;16.07;;;7.50;;
14907;SDS011;7545;52.092;7.006;2024-01-10T11:03:33;13.23;;;6.93;;
14907;SDS011;7545;52.092;7.006;2024-01-10T11:06:04;13.53;;;8.17;;
14907;SDS011;7545;52.092;7.006;2024-01-10T11:08:32;10.60;;;7.03;;
14907;SDS011;7545;52.092;7.006;2024-01-10T11:11:04;10.73;;;6.47;;
14907;SDS011;7545;52.092;7.006;2024-01-10T11:24:55;13.07;;;7.60;;
14907;SDS011;7545;52.092;7.006;2024-01-10T11:27:21;11.67;;;7.20;;
14907;SDS011;7545;52.092;7.006;2024-01-10T11:29:47;15.83;;;7.17;;
14907;SDS011;7545;52.092;7.006;2024-01-10T11:32:14;12.27;;;6.27;;
14907;SDS011;7545;52.092;7.006;2024-01-10T11:34:59;14.47;;;8.17;;
14907;SDS011;7545;52.092;7.006;2024-01-10T11:37:43;10.73;;;6.30;;
14907;SDS011;7545;52.092;7.006;2024-01-10T11:40:11;11.17;;;7.17;;
14907;SDS011;7545;52.092;7.006;2024-01-10T11:42:55;14.07;;;6.73;;
14907;SDS011;7545;52.092;7.006;2024-01-10T11:47:55;14.87;;;7.43;;
14907;SDS011;7545;52.092;7.006;2024-01-10T11:50:21;10.57;;;6.73;;
14907;SDS011;7545;52.092;7.006;2024-01-10T11:52:52;10.57;;;6.50;;
14907;SDS011;7545;52.092;7.006;2024-01-10T11:58:13;16.83;;;7.73;;
14907;SDS011;7545;52.092;7.006;2024-01-10T12:00:39;12.63;;;6.97;;
14907;SDS011;7545;52.092;7.006;2024-01-10T12:03:07;13.80;;;6.67;;
14907;SDS011;7545;52.092;7.006;2024-01-10T12:05:33;11.47;;;6.67;;
14907;SDS011;7545;52.092;7.006;2024-01-10T12:08:00;12.53;;;7.07;;
14907;SDS011;7545;52.092;7.006;2024-01-10T12:10:29;15.93;;;7.93;;
14907;SDS011;7545;52.092;7.006;2024-01-10T12:13:00;14.63;;;7.27;;
14907;SDS011;7545;52.092;7.006;2024-01-10T12:15:26;11.57;;;7.33;;
14907;SDS011;7545;52.092;7.006;2024-01-10T12:17:51;12.43;;;7.23;;
14907;SDS011;7545;52.092;7.006;2024-01-10T12:20:17;15.73;;;7.13;;
14907;SDS011;7545;52.092;7.006;2024-01-10T12:22:43;10.87;;;6.83;;
14907;SDS011;7545;52.092;7.006;2024-01-10T12:25:08;11.10;;;7.07;;
14907;SDS011;7545;52.092;7.006;2024-01-10T12:27:34;11.83;;;6.90;;
14907;SDS011;7545;52.092;7.006;2024-01-10T12:30:00;12.03;;;7.13;;
14907;SDS011;7545;52.092;7.006;2024-01-10T12:32:27;11.37;;;6.77;;
14907;SDS011;7545;52.092;7.006;2024-01-10T12:35:03;13.23;;;7.87;;
14907;SDS011;7545;52.092;7.006;2024-01-10T12:37:30;15.13;;;7.73;;
14907;SDS011;7545;52.092;7.006;2024-01-10T12:39:56;14.30;;;8.03;;
14907;SDS011;7545;52.092;7.006;2024-01-10T12:42:22;12.40;;;6.97;;
14907;SDS011;7545;52.092;7.006;2024-01-10T12:44:48;14.80;;;7.30;;
14907;SDS011;7545;52.092;7.006;2024-01-10T12:47:20;19.47;;;7.70;;
14907;SDS011;7545;52.092;7.006;2024-01-10T12:49:47;11.77;;;7.10;;
14907;SDS011;7545;52.092;7.006;2024-01-10T12:52:13;10.63;;;7.17;;
14907;SDS011;7545;52.092;7.006;2024-01-10T12:54:39;10.03;;;6.70;;
14907;SDS011;7545;52.092;7.006;2024-01-10T12:57:05;11.83;;;6.40;;
14907;SDS011;7545;52.092;7.006;2024-01-10T12:59:32;16.10;;;7.50;;
14907;SDS011;7545;52.092;7.006;2024-01-10T13:01:57;13.47;;;6.57;;
14907;SDS011;7545;52.092;7.006;2024-01-10T13:04:23;11.33;;;7.17;;
14907;SDS011;7545;52.092;7.006;2024-01-10T13:06:49;18.90;;;7.13;;
14907;SDS011;7545;52.092;7.006;2024-01-10T13:09:15;13.00;;;6.80;;
14907;SDS011;7545;52.092;7.006;2024-01-10T13:11:40;13.43;;;6.33;;
14907;SDS011;7545;52.092;7.006;2024-01-10T13:14:06;10.63;;;6.50;;
14907;SDS011;7545;52.092;7.006;2024-01-10T13:16:31;13.33;;;6.93;;
14907;SDS011;7545;52.092;7.006;2024-01-10T13:18:58;14.00;;;6.57;;
14907;SDS011;7545;52.092;7.006;2024-01-10T13:21:24;11.53;;;7.27;;
14907;SDS011;7545;52.092;7.006;2024-01-10T13:23:50;13.37;;;7.30;;
14907;SDS011;7545;52.092;7.006;2024-01-10T13:26:16;14.33;;;6.93;;
14907;SDS011;7545;52.092;7.006;2024-01-10T13:28:42;13.67;;;8.13;;
14907;SDS011;7545;52.092;7.006;2024-01-10T13:31:08;11.37;;;6.63;;
14907;SDS011;7545;52.092;7.006;2024-01-10T13:33:34;14.13;;;7.20;;
14907;SDS011;7545;52.092;7.006;2024-01-10T13:36:00;13.70;;;8.53;;
14907;SDS011;7545;52.092;7.006;2024-01-10T13:38:26;13.43;;;7.03;;
14907;SDS011;7545;52.092;7.006;2024-01-10T13:40:51;14.67;;;8.20;;
14907;SDS011;7545;52.092;7.006;2024-01-10T13:43:17;12.20;;;7.80;;
14907;SDS011;7545;52.092;7.006;2024-01-10T13:45:43;14.43;;;9.30;;
14907;SDS011;7545;52.092;7.006;2024-01-10T13:48:08;17.00;;;9.50;;
14907;SDS011;7545;52.092;7.006;2024-01-10T13:50:35;12.47;;;7.83;;
14907;SDS011;7545;52.092;7.006;2024-01-10T13:53:01;10.50;;;6.97;;
14907;SDS011;7545;52.092;7.006;2024-01-10T13:55:29;15.27;;;8.03;;
14907;SDS011;7545;52.092;7.006;2024-01-10T13:57:54;14.03;;;7.23;;
14907;SDS011;7545;52.092;7.006;2024-01-10T14:00:21;16.57;;;9.27;;
14907;SDS011;7545;52.092;7.006;2024-01-10T14:02:47;14.67;;;7.67;;
14907;SDS011;7545;52.092;7.006;2024-01-10T14:05:14;14.50;;;7.43;;
14907;SDS011;7545;52.092;7.006;2024-01-10T14:07:39;16.33;;;9.30;;
14907;SDS011;7545;52.092;7.006;2024-01-10T14:10:09;15.77;;;7.43;;
14907;SDS011;7545;52.092;7.006;2024-01-10T14:12:35;11.60;;;8.17;;
14907;SDS011;7545;52.092;7.006;2024-01-10T14:15:01;15.10;;;8.93;;
14907;SDS011;7545;52.092;7.006;2024-01-10T14:17:27;16.87;;;10.73;;
14907;SDS011;7545;52.092;7.006;2024-01-10T14:19:53;17.10;;;8.83;;
14907;SDS011;7545;52.092;7.006;2024-01-10T14:22:18;14.77;;;9.47;;
14907;SDS011;7545;52.092;7.006;2024-01-10T14:24:44;13.87;;;8.50;;
14907;SDS011;7545;52.092;7.006;2024-01-10T14:27:09;14.47;;;8.63;;
14907;SDS011;7545;52.092;7.006;2024-01-10T14:29:35;14.37;;;8.53;;
14907;SDS011;7545;52.092;7.006;2024-01-10T14:32:01;15.03;;;7.93;;
14907;SDS011;7545;52.092;7.006;2024-01-10T14:34:27;15.17;;;8.17;;
14907;SDS011;7545;52.092;7.006;2024-01-10T14:36:52;13.07;;;8.10;;
14907;SDS011;7545;52.092;7.006;2024-01-10T14:39:18;14.40;;;8.40;;
14907;SDS011;7545;52.092;7.006;2024-01-10T14:41:43;12.53;;;7.63;;
14907;SDS011;7545;52.092;7.006;2024-01-10T14:44:09;15.77;;;8.67;;
14907;SDS011;7545;52.092;7.006;2024-01-10T14:46:35;13.70;;;8.23;;
14907;SDS011;7545;52.092;7.006;2024-01-10T14:49:00;15.07;;;8.03;;
14907;SDS011;7545;52.092;7.006;2024-01-10T14:51:26;14.87;;;7.53;;
14907;SDS011;7545;52.092;7.006;2024-01-10T14:53:52;14.77;;;8.63;;
14907;SDS011;7545;52.092;7.006;2024-01-10T14:56:18;15.10;;;9.13;;
14907;SDS011;7545;52.092;7.006;2024-01-10T14:58:43;17.10;;;9.00;;
14907;SDS011;7545;52.092;7.006;2024-01-10T15:01:09;11.33;;;6.93;;
14907;SDS011;7545;52.092;7.006;2024-01-10T15:03:35;14.87;;;8.23;;
14907;SDS011;7545;52.092;7.006;2024-01-10T15:06:03;26.87;;;16.10;;
14907;SDS011;7545;52.092;7.006;2024-01-10T15:08:30;29.23;;;17.13;;